Flight Track Log - Related Links

Times and Time Zones

All times are in EDT time to prevent confusion due to time zone crossing. See the N654DL flight status page for this flight to view local times or setup timezone preferences in your user account.

Time Position Orientation Groundspeed Altitude Reporting Facility
EDT Latitude Longitude Course Direction KTS MPH feet Rate Location/Type
Thu 10:31:12 AM 42.2017 -83.3583 114° Southeast 168 193 1,500  Level Cleveland Center
Thu 10:32:49 AM 42.1069 -83.3878 193° South 261 300 6,100 2,963 Climbing Cleveland Center
Thu 10:33:56 AM 42.0297 -83.3953 184° South 264 304 9,600 1,786 Climbing Cleveland Center
Thu 10:34:00 AM 42.1398 -82.8872 97° East  Level FlightAware Approximate
Thu 10:35:00 AM 42.1147 -82.7320 98° East  Level FlightAware Approximate
Thu 10:35:00 AM 42.0089 -83.3050 107° East 266 306 10,000  Level Cleveland Center
Thu 10:36:00 AM 42.0971 -82.5747 114° Southeast  Level FlightAware Approximate
Thu 10:36:00 AM 42.0219 -83.1911 81° East 279 321 10,000  Level Cleveland Center
Thu 10:37:00 AM 42.0331 -83.0711 83° East 292 336 10,000 1,100 Level Cleveland Center
Thu 10:38:00 AM 42.0417 -82.9569 84° East 305 351 12,200 2,600 Climbing Cleveland Center
Thu 10:40:00 AM 42.0653 -82.7061 83° East 329 379 17,800 2,667 Climbing Cleveland Center
Thu 10:41:00 AM 42.0803 -82.5667 82° East 353 406 20,200 2,350 Climbing Cleveland Center
Thu 10:42:00 AM 42.0786 -82.4267 91° East 365 420 22,500 2,200 Climbing Cleveland Center
Thu 10:43:00 AM 42.0558 -82.2806 102° East 377 434 24,600 2,150 Climbing Cleveland Center
Thu 10:44:00 AM 42.0331 -82.1206 101° East 395 455 26,800 1,850 Climbing Cleveland Center
Thu 10:45:00 AM 41.9697 -82.0158 129° Southeast 405 466 28,300 1,450 Climbing Cleveland Center
Thu 10:46:00 AM 41.8750 -81.9272 145° Southeast 405 466 29,700 950 Climbing Cleveland Center
Thu 10:47:00 AM 41.7739 -81.8278 144° Southeast 436 502 30,200 650 Climbing Cleveland Center
Thu 10:48:00 AM 41.6708 -81.7283 144° Southeast 460 529 31,000 400 Climbing Cleveland Center
Thu 10:49:00 AM 41.5633 -81.6267 145° Southeast 467 537 31,000  Level Cleveland Center
Thu 10:50:00 AM 41.4475 -81.5167 145° Southeast 467 537 31,000  Level Cleveland Center
Thu 10:51:00 AM 41.3483 -81.4211 144° Southeast 456 525 31,000  Level Cleveland Center
Thu 10:52:00 AM 41.2406 -81.3258 146° Southeast 461 531 31,000  Level Cleveland Center
Thu 10:53:00 AM 41.1325 -81.2392 149° Southeast 461 531 31,000  Level Cleveland Center
Thu 10:54:00 AM 41.0331 -81.1583 148° Southeast 456 525 31,000  Level Cleveland Center
Thu 10:55:00 AM 40.9228 -81.0722 149° Southeast 456 525 31,000  Level Cleveland Center
Thu 10:56:00 AM 40.7981 -81.0056 158° South 456 525 31,000  Level Cleveland Center
Thu 10:57:00 AM 40.6731 -80.9744 169° South 450 518 31,000  Level Cleveland Center
Thu 10:58:00 AM 40.5481 -80.9439 169° South 450 518 31,000  Level Cleveland Center
Thu 10:59:00 AM 40.4211 -80.9131 170° South 455 524 31,000  Level Cleveland Center
Thu 11:00:00 AM 40.2961 -80.8825 169° South 455 524 31,000  Level Cleveland Center
Thu 11:01:00 AM 40.1711 -80.8519 169° South 460 529 31,000  Level Cleveland Center
Thu 11:02:00 AM 40.0481 -80.8217 169° South 460 529 31,000  Level Cleveland Center
Thu 11:03:00 AM 39.9483 -80.7239 143° Southeast 446 513 31,000  Level Cleveland Center
Thu 11:04:00 AM 39.8692 -80.6100 132° Southeast 446 513 31,000  Level Cleveland Center
Thu 11:05:00 AM 39.7836 -80.4886 133° Southeast 451 519 31,000  Level Cleveland Center
Thu 11:06:00 AM 39.6981 -80.3700 133° Southeast 451 519 31,000  Level Cleveland Center
Thu 11:07:00 AM 39.6103 -80.2489 133° Southeast 457 526 31,000  Level Cleveland Center
Thu 11:07:24 AM 39.5575 -80.1836 136° Southeast 456 525 31,000  Level Washington Center
Thu 11:08:24 AM 39.4822 -80.0767 132° Southeast 444 511 31,000  Level Washington Center
Thu 11:09:22 AM 39.3950 -79.9586 134° Southeast 444 511 31,000  Level Washington Center
Thu 11:10:23 AM 39.3094 -79.8381 133° Southeast 454 522 31,000 -246 Level Washington Center
Thu 11:11:24 AM 39.2875 -79.6892 101° East 445 512 30,500 -1,059 Descending Washington Center
Thu 11:12:22 AM 39.2744 -79.5250 96° East 450 518 28,900 -1,068 Descending Washington Center
Thu 11:13:22 AM 39.2608 -79.3606 96° East 455 524 28,400 -793 Descending Washington Center
Thu 11:14:23 AM 39.2433 -79.1828 97° East 455 524 27,300 -1,426 Descending Washington Center
Thu 11:15:24 AM 39.2308 -79.0375 96° East 437 503 25,500 -1,636 Descending Washington Center
Thu 11:16:24 AM 39.2203 -78.8978 96° East 413 475 24,000 -1,373 Descending Washington Center
Thu 11:17:22 AM 39.2050 -78.7656 98° East 389 448 22,800 -1,525 Descending Washington Center
Thu 11:18:22 AM 39.1919 -78.6311 97° East 378 435 21,000 -1,884 Descending Washington Center
Thu 11:19:23 AM 39.1786 -78.4967 97° East 373 429 19,000 -1,967 Descending Washington Center
Thu 11:20:24 AM 39.1628 -78.3675 99° East 373 429 17,000 -1,438 Descending Washington Center
Thu 11:21:24 AM 39.1364 -78.2489 106° East 360 414 16,100 -966 Descending Washington Center
Thu 11:22:22 AM 39.1056 -78.1328 109° East 347 399 15,100 -1,017 Descending Washington Center
Thu 11:23:22 AM 39.0764 -78.0194 108° East 340 391 14,100 -1,041 Descending Washington Center
Thu 11:24:23 AM 39.0475 -77.9061 108° East 334 384 13,000 -1,230 Descending Washington Center
Thu 11:25:24 AM 39.0203 -77.8011 108° East 322 371 11,600 -1,322 Descending Washington Center
Thu 11:26:21 AM 38.9950 -77.6989 108° East 312 359 10,400 -908 Descending Washington Center
Thu 11:27:23 AM 38.9694 -77.6075 110° East 280 322 9,800 -714 Descending Washington Center
Thu 11:28:27 AM 38.9333 -77.5167 117° Southeast 260 299 8,900 -966 Descending Potomac TRACON
Thu 11:29:21 AM 38.9000 -77.4333 117° Southeast 254 292 7,900 -1,105 Descending Potomac TRACON
Thu 11:30:21 AM 38.8667 -77.3667 123° Southeast 243 280 6,800 -950 Descending Potomac TRACON
Thu 11:31:21 AM 38.8333 -77.2833 117° Southeast 239 275 6,000 -400 Descending Potomac TRACON
Thu 11:32:21 AM 38.8000 -77.2167 123° Southeast 238 274 6,000 -600 Level Potomac TRACON
Thu 11:33:21 AM 38.7833 -77.1500 108° East 212 244 4,800 -1,316 Descending Potomac TRACON
Thu 11:34:15 AM 38.7333 -77.1167 153° Southeast 188 216 3,500 -1,444 Descending Potomac TRACON

Login

Don't have an account? Register now (free) for customized features, flight alerts, and more!